Brownings Corner, Kentucky
Current Conditions -  °F | °C
As of 1:53 AM on Sunday 23 Nov 2014 (Local Time) from KLUK Reporting Station
Overcast Overcast  
Wind Chill: 42°   Ceiling: 8000
Heat Index: 46°   Visibility: 10mi
Dew Point: 36°   Wind: 7mph
Humidity: 68%   Direction: 230°SW
Pressure: 30.06"   Gusts: NA
Location:  38.6506°N, 84.351°W
Report Text: KLUK 230653Z AUTO 23006KT 10SM OVC080 08/02 A3006 RMK AO2 SLP179 T00780022
Loading
Personal Weather Stations






























Interactive Weather Map New forecast layout! Learn more

10-Day Weather Forecast

Advertisements
Track Severe Weather on mobile